Time;durP1;ratioP1;P1;durP2;ratioP2;P2;SDS_P1;SDS_P2;PMS_P1;PMS_P2;Temp;Humidity;BMP_temperature;BMP_pressure;BME280_temperature;BME280_humidity;BME280_pressure;Samples;Min_cycle;Max_cycle;Signal;HPM_P1;HPM_P2
2022/11/21 00:01:26;;;;;;;21.70;18.97;;;;;;;10.17;100.00;91571.00;5093646;28;20216;-71
2022/11/21 00:03:51;;;;;;;19.37;17.47;;;;;;;10.18;100.00;91567.34;5091679;28;20220;-70
2022/11/21 00:06:18;;;;;;;16.70;15.43;;;;;;;10.19;100.00;91554.00;5091230;28;20224;-72
2022/11/21 00:08:43;;;;;;;14.70;13.70;;;;;;;10.15;100.00;91531.44;5087702;28;20212;-71
2022/11/21 00:11:09;;;;;;;14.70;13.63;;;;;;;10.15;100.00;91540.00;5107345;28;20275;-71
2022/11/21 00:13:34;;;;;;;14.80;13.70;;;;;;;10.22;100.00;91542.97;5110890;28;20195;-71
2022/11/21 00:16:14;;;;;;;14.47;13.40;;;;;;;10.30;100.00;91523.97;5109255;28;20240;-71
2022/11/21 00:18:41;;;;;;;16.37;15.00;;;;;;;10.32;100.00;91527.03;5112513;28;20183;-72
2022/11/21 00:21:10;;;;;;;13.90;12.87;;;;;;;10.25;100.00;91516.28;5107178;28;20280;-70
2022/11/21 00:23:35;;;;;;;12.17;11.27;;;;;;;10.41;100.00;91514.78;5104588;28;20208;-70
2022/11/21 00:26:08;;;;;;;11.70;11.00;;;;;;;10.61;100.00;91510.84;5097594;28;20238;-71
2022/11/21 00:28:34;;;;;;;12.17;11.37;;;;;;;10.47;100.00;91510.97;5090680;28;20193;-70
2022/11/21 00:31:00;;;;;;;13.23;12.20;;;;;;;9.98;100.00;91500.06;5099365;28;20229;-71
2022/11/21 00:33:25;;;;;;;12.43;11.60;;;;;;;9.77;100.00;91479.72;5105159;28;20183;-71
2022/11/21 00:35:51;;;;;;;13.37;12.33;;;;;;;9.92;100.00;91517.66;5101146;28;20213;-71
2022/11/21 00:38:16;;;;;;;13.77;12.80;;;;;;;10.01;100.00;91470.78;5087401;28;20223;-71
2022/11/21 00:40:43;;;;;;;13.87;12.90;;;;;;;9.91;100.00;91490.06;5096850;28;20223;-71
2022/11/21 00:43:08;;;;;;;13.40;12.37;;;;;;;10.09;100.00;91504.72;5104149;28;20255;-71
2022/11/21 00:45:33;;;;;;;9.13;8.73;;;;;;;10.47;100.00;91524.03;5105382;28;20234;-71
2022/11/21 00:47:59;;;;;;;10.47;9.80;;;;;;;10.42;100.00;91495.47;5108919;28;20192;-71
2022/11/21 00:50:24;;;;;;;10.70;9.83;;;;;;;10.58;100.00;91486.13;5103398;28;20241;-71
2022/11/21 00:52:54;;;;;;;10.10;9.60;;;;;;;10.66;100.00;91480.13;5094333;28;20189;-70
2022/11/21 00:55:19;;;;;;;9.30;8.90;;;;;;;10.74;100.00;91491.69;5083597;28;20247;-71
2022/11/21 00:57:44;;;;;;;8.50;8.20;;;;;;;10.77;100.00;91460.47;5083397;28;20185;-70
2022/11/21 01:00:10;;;;;;;8.80;8.20;;;;;;;11.03;100.00;91478.78;5087591;28;20235;-71
2022/11/21 01:02:36;;;;;;;8.67;8.37;;;;;;;11.13;100.00;91432.19;5083707;28;20180;-71
2022/11/21 01:05:01;;;;;;;9.73;8.93;;;;;;;11.02;100.00;91435.44;5092538;28;20730;-70
2022/11/21 01:07:27;;;;;;;16.93;15.43;;;;;;;10.72;100.00;91442.34;5107140;28;20196;-71
2022/11/21 01:09:52;;;;;;;9.77;9.20;;;;;;;10.51;100.00;91461.53;5107911;28;20259;-70
2022/11/21 01:12:17;;;;;;;10.87;10.17;;;;;;;11.09;100.00;91443.56;5092103;28;20173;-70
2022/11/21 01:14:43;;;;;;;8.93;8.63;;;;;;;10.85;100.00;91433.63;5088275;28;20207;-70
2022/11/21 01:17:08;;;;;;;9.70;9.03;;;;;;;10.86;100.00;91450.06;5087384;28;20179;-71
2022/11/21 01:19:33;;;;;;;9.17;8.67;;;;;;;11.19;100.00;91454.47;5088866;28;20197;-70
2022/11/21 01:21:59;;;;;;;9.17;8.50;;;;;;;11.18;100.00;91447.72;5107163;28;20232;-70
2022/11/21 01:24:24;;;;;;;10.47;9.90;;;;;;;11.14;100.00;91459.84;5107692;28;20192;-71
2022/11/21 01:26:50;;;;;;;9.50;8.87;;;;;;;11.35;100.00;91463.38;5105360;28;20236;-70
2022/11/21 01:29:16;;;;;;;9.33;8.83;;;;;;;11.13;100.00;91431.44;5108994;28;20221;-69
2022/11/21 01:31:41;;;;;;;9.97;9.17;;;;;;;11.35;100.00;91460.75;5109744;28;20223;-70
2022/11/21 01:34:06;;;;;;;8.20;7.80;;;;;;;11.42;99.31;91469.97;5110283;28;20237;-68
2022/11/21 01:36:33;;;;;;;9.37;8.87;;;;;;;11.58;96.80;91463.91;5094022;28;20229;-71
2022/11/21 01:39:01;;;;;;;8.83;8.13;;;;;;;11.30;100.00;91440.00;5103103;28;20232;-71
2022/11/21 01:41:35;;;;;;;9.90;9.10;;;;;;;11.41;96.99;91437.06;5096306;28;20220;-72
2022/11/21 01:44:16;;;;;;;8.87;8.37;;;;;;;11.53;98.11;91429.34;5130876;28;20263;-72
2022/11/21 01:46:41;;;;;;;8.97;8.43;;;;;;;11.46;98.26;91424.59;5114274;28;20220;-71
2022/11/21 01:49:24;;;;;;;9.23;8.73;;;;;;;11.53;98.91;91443.19;5122401;28;20178;-71
2022/11/21 01:51:58;;;;;;;9.60;9.13;;;;;;;10.96;100.00;91437.44;5114351;28;20204;-71
2022/11/21 01:54:32;;;;;;;8.77;8.37;;;;;;;11.28;100.00;91457.09;5115606;28;20164;-71
2022/11/21 01:57:10;;;;;;;9.17;8.77;;;;;;;11.06;100.00;91486.75;5090089;28;20232;-71
2022/11/21 01:59:50;;;;;;;9.97;9.37;;;;;;;10.70;100.00;91469.84;5090025;28;20188;-71
2022/11/21 02:02:20;;;;;;;10.33;9.53;;;;;;;10.84;100.00;91460.03;5095609;28;20175;-71
2022/11/21 02:04:46;;;;;;;9.67;9.20;;;;;;;10.98;100.00;91445.75;5091856;28;20418;-71
2022/11/21 02:07:13;;;;;;;9.53;9.03;;;;;;;10.73;100.00;91484.91;5117854;28;20201;-70
2022/11/21 02:09:43;;;;;;;9.30;8.90;;;;;;;10.53;100.00;91477.66;5111060;28;20215;-71
2022/11/21 02:12:16;;;;;;;9.77;9.17;;;;;;;10.35;100.00;91508.16;5110093;28;20189;-71
2022/11/21 02:14:43;;;;;;;8.83;8.33;;;;;;;10.60;100.00;91470.91;5110312;28;20189;-71
2022/11/21 02:17:09;;;;;;;9.50;9.03;;;;;;;10.36;100.00;91470.59;5097180;28;20188;-71
2022/11/21 02:19:49;;;;;;;9.70;9.10;;;;;;;10.06;100.00;91470.63;5109265;28;20176;-72
2022/11/21 02:22:38;;;;;;;9.97;9.17;;;;;;;10.04;100.00;91489.16;5109171;28;20195;-71
2022/11/21 02:25:25;;;;;;;9.10;8.70;;;;;;;10.28;100.00;91457.50;5109351;28;20224;-71
2022/11/21 02:27:57;;;;;;;8.77;8.23;;;;;;;10.52;100.00;91416.88;5119841;28;20242;-70
2022/11/21 02:30:23;;;;;;;9.37;8.70;;;;;;;10.92;99.47;91446.22;5125542;28;20286;-71
2022/11/21 02:32:49;;;;;;;8.63;8.20;;;;;;;10.81;100.00;91456.19;5127199;28;20187;-71
2022/11/21 02:35:16;;;;;;;9.23;8.73;;;;;;;10.87;100.00;91433.31;5107880;28;20230;-71
2022/11/21 02:37:46;;;;;;;9.00;8.50;;;;;;;10.77;100.00;91449.28;5110392;28;20883;-71
2022/11/21 02:40:24;;;;;;;9.47;8.97;;;;;;;10.67;100.00;91460.03;5109651;28;20256;-71
2022/11/21 02:42:49;;;;;;;9.00;8.60;;;;;;;10.45;100.00;91453.09;5111188;28;20177;-71
2022/11/21 02:45:20;;;;;;;9.13;8.47;;;;;;;10.45;100.00;91460.94;5109282;28;20261;-71
2022/11/21 02:47:49;;;;;;;9.23;8.73;;;;;;;10.64;100.00;91430.09;5109964;28;20176;-71
2022/11/21 02:50:19;;;;;;;9.30;8.80;;;;;;;10.62;100.00;91395.69;5109365;28;20212;-71
2022/11/21 02:52:44;;;;;;;8.43;8.13;;;;;;;10.47;100.00;91398.78;5110188;28;20208;-71
2022/11/21 02:55:14;;;;;;;9.13;8.73;;;;;;;10.47;100.00;91414.44;5106391;28;20265;-71
2022/11/21 02:57:40;;;;;;;9.83;9.23;;;;;;;10.87;100.00;91397.53;5104009;28;20242;-70
2022/11/21 03:00:07;;;;;;;10.07;9.20;;;;;;;11.38;91.45;91399.25;5090392;28;20284;-70
2022/11/21 03:02:33;;;;;;;9.63;9.20;;;;;;;11.17;99.60;91408.84;5085615;28;20169;-71
2022/11/21 03:04:58;;;;;;;9.33;8.83;;;;;;;11.17;95.74;91406.97;5091472;28;20234;-71
2022/11/21 03:07:24;;;;;;;9.60;8.80;;;;;;;11.20;94.36;91411.63;5104956;28;20172;-71
2022/11/21 03:09:49;;;;;;;9.30;8.77;;;;;;;11.54;92.12;91429.03;5109257;28;20187;-70
2022/11/21 03:12:14;;;;;;;8.83;8.37;;;;;;;11.41;93.99;91405.72;5112672;28;20203;-72
2022/11/21 03:14:40;;;;;;;9.43;9.03;;;;;;;11.36;95.04;91419.72;5113577;28;20191;-72
2022/11/21 03:17:05;;;;;;;9.07;8.57;;;;;;;11.30;96.39;91403.44;5112724;28;20590;-71
2022/11/21 03:19:30;;;;;;;8.03;7.73;;;;;;;10.81;100.00;91404.00;5113657;28;20255;-71
2022/11/21 03:21:56;;;;;;;9.20;8.80;;;;;;;11.16;95.45;91415.91;5110444;28;20215;-71
2022/11/21 03:24:21;;;;;;;9.27;8.73;;;;;;;11.25;96.74;91416.66;5116288;28;20204;-71
2022/11/21 03:26:47;;;;;;;9.80;9.20;;;;;;;11.21;97.27;91402.69;5103196;28;20224;-71
2022/11/21 03:29:12;;;;;;;9.27;8.80;;;;;;;11.16;96.56;91396.84;5113857;28;20176;-71
2022/11/21 03:31:38;;;;;;;9.80;8.97;;;;;;;11.23;93.51;91411.00;5094869;28;20228;-72
2022/11/21 03:34:03;;;;;;;9.70;9.03;;;;;;;11.21;96.79;91387.03;5095231;28;20252;-71
2022/11/21 03:36:28;;;;;;;9.20;8.70;;;;;;;11.74;88.15;91435.44;5095441;28;20545;-71
2022/11/21 03:38:58;;;;;;;7.47;7.17;;;;;;;11.98;87.07;91409.50;5113917;28;20183;-71
2022/11/21 03:41:30;;;;;;;8.80;8.30;;;;;;;12.07;83.31;91390.06;5112211;28;20222;-71
2022/11/21 03:43:55;;;;;;;8.93;8.30;;;;;;;11.94;87.46;91403.38;5113261;28;20199;-71
2022/11/21 03:46:21;;;;;;;9.23;8.60;;;;;;;12.04;84.65;91379.47;5094263;28;20254;-71
2022/11/21 03:48:46;;;;;;;9.33;8.63;;;;;;;11.85;86.25;91366.03;5092395;28;20193;-70
2022/11/21 03:51:11;;;;;;;10.00;9.30;;;;;;;11.59;91.43;91386.28;5106307;28;20224;-70
2022/11/21 03:53:37;;;;;;;9.10;8.60;;;;;;;11.81;84.59;91396.53;5111958;28;20208;-71
2022/11/21 03:56:02;;;;;;;8.83;8.43;;;;;;;11.90;85.69;91371.09;5112123;28;20294;-72
2022/11/21 03:58:27;;;;;;;8.80;8.33;;;;;;;11.87;85.63;91384.78;5113586;28;20250;-70
2022/11/21 04:00:53;;;;;;;8.30;8.00;;;;;;;11.74;86.57;91372.69;5112293;28;22248;-70
2022/11/21 04:03:18;;;;;;;9.70;8.97;;;;;;;11.79;87.98;91349.00;5112899;28;20215;-71
2022/11/21 04:05:43;;;;;;;8.80;8.40;;;;;;;12.08;85.80;91320.19;5112020;28;20251;-72
2022/11/21 04:08:09;;;;;;;8.77;8.23;;;;;;;12.05;84.84;91357.44;5112691;28;20240;-71
2022/11/21 04:10:34;;;;;;;8.83;8.43;;;;;;;12.40;79.89;91340.44;5112112;28;20303;-71
2022/11/21 04:13:00;;;;;;;9.53;8.77;;;;;;;12.37;81.79;91352.31;5112816;28;20192;-71
2022/11/21 04:15:25;;;;;;;9.20;8.77;;;;;;;12.32;81.97;91352.53;5104334;28;20250;-70
2022/11/21 04:17:50;;;;;;;9.30;8.83;;;;;;;12.26;84.21;91342.56;5092108;28;20180;-71
2022/11/21 04:20:16;;;;;;;7.97;7.57;;;;;;;12.30;81.17;91325.13;5101437;28;20231;-71
2022/11/21 04:22:41;;;;;;;9.43;8.73;;;;;;;12.41;80.81;91318.41;5121014;28;20206;-71
2022/11/21 04:25:07;;;;;;;9.07;8.37;;;;;;;12.45;80.19;91325.31;5120775;28;20221;-71
2022/11/21 04:27:32;;;;;;;8.67;8.37;;;;;;;12.36;82.94;91339.53;5120825;28;20211;-71
2022/11/21 04:29:57;;;;;;;9.00;8.60;;;;;;;12.40;78.79;91314.28;5124523;27;20219;-71
2022/11/21 04:32:23;;;;;;;12.00;8.90;;;;;;;12.60;77.76;91322.13;5115374;28;20200;-71
2022/11/21 04:34:48;;;;;;;9.10;8.77;;;;;;;12.53;77.51;91287.81;5107468;28;20224;-70
2022/11/21 04:37:14;;;;;;;8.83;8.43;;;;;;;12.43;78.55;91311.78;5103749;28;20182;-72
2022/11/21 04:39:39;;;;;;;9.07;8.47;;;;;;;12.42;80.17;91330.44;5111401;28;20198;-72
2022/11/21 04:42:04;;;;;;;8.97;8.10;;;;;;;12.40;81.72;91322.91;5122308;28;20206;-71
2022/11/21 04:44:30;;;;;;;8.50;8.07;;;;;;;12.43;81.65;91337.19;5115465;28;20274;-70
2022/11/21 04:46:55;;;;;;;8.17;7.77;;;;;;;12.23;81.51;91312.53;5103266;28;20309;-70
2022/11/21 04:49:21;;;;;;;8.80;8.40;;;;;;;12.31;80.10;91350.22;5102676;28;20192;-70
2022/11/21 04:51:46;;;;;;;8.33;8.03;;;;;;;12.40;79.12;91353.53;5108428;28;20232;-69
2022/11/21 04:54:11;;;;;;;8.73;8.30;;;;;;;12.37;79.25;91375.84;5107340;28;20182;-70
2022/11/21 04:56:37;;;;;;;8.57;7.93;;;;;;;12.39;78.14;91397.25;5104188;28;20257;-69
2022/11/21 04:59:02;;;;;;;7.83;7.53;;;;;;;12.44;77.47;91412.78;5107179;28;20184;-68
2022/11/21 05:01:28;;;;;;;9.07;8.67;;;;;;;12.39;77.25;91399.13;5099027;28;20235;-66
2022/11/21 05:03:53;;;;;;;7.97;7.67;;;;;;;12.69;75.60;91385.66;5086194;28;20249;-67
2022/11/21 05:06:18;;;;;;;10.30;9.77;;;;;;;12.51;81.56;91415.63;5109461;28;20219;-69
2022/11/21 05:08:44;;;;;;;8.93;8.27;;;;;;;11.90;87.66;91389.38;5108027;28;20188;-67
2022/11/21 05:13:54;;;;;;;9.53;9.13;;;;;;;11.72;91.33;91416.72;5083522;28;20209;-69
2022/11/21 05:16:19;;;;;;;11.40;10.80;;;;;;;11.53;94.22;91424.91;5098754;28;20301;-69
2022/11/21 05:18:44;;;;;;;10.73;10.03;;;;;;;11.50;95.31;91429.97;5111188;28;20261;-68
2022/11/21 05:21:10;;;;;;;10.00;9.30;;;;;;;11.34;96.55;91440.94;5104806;28;20218;-68
2022/11/21 05:23:35;;;;;;;9.53;8.87;;;;;;;11.32;96.08;91430.03;5121305;28;20187;-69
2022/11/21 05:26:00;;;;;;;10.53;9.87;;;;;;;11.21;96.39;91470.59;5118572;27;20225;-68
2022/11/21 05:28:26;;;;;;;9.80;9.33;;;;;;;11.28;94.33;91452.59;5118216;28;20217;-67
2022/11/21 05:30:51;;;;;;;9.03;8.53;;;;;;;11.01;96.27;91442.53;5100973;28;20299;-67
2022/11/21 05:33:17;;;;;;;11.80;10.73;;;;;;;10.78;100.00;91467.25;5099536;28;20258;-68
2022/11/21 05:35:42;;;;;;;9.37;9.07;;;;;;;11.19;87.90;91389.16;5097808;28;20239;-68
2022/11/21 05:38:08;;;;;;;9.33;8.83;;;;;;;11.39;88.66;91429.53;5110442;28;20185;-68
2022/11/21 05:40:33;;;;;;;10.00;9.40;;;;;;;11.51;91.65;91441.94;5097262;28;20212;-70
2022/11/21 05:45:42;;;;;;;9.47;8.73;;;;;;;11.05;93.11;91425.13;5090119;28;20234;-71
2022/11/21 05:48:08;;;;;;;9.80;9.20;;;;;;;11.26;92.92;91436.50;5108929;28;20192;-70
2022/11/21 05:50:36;;;;;;;9.77;9.30;;;;;;;10.84;97.37;91465.25;5102101;28;20239;-69
2022/11/21 05:53:04;;;;;;;11.17;10.23;;;;;;;10.82;94.70;91452.50;5088385;28;20165;-70
2022/11/21 05:55:32;;;;;;;9.53;9.07;;;;;;;10.91;96.12;91470.78;5088933;28;20259;-69
2022/11/21 05:57:58;;;;;;;10.30;9.70;;;;;;;10.69;97.80;91502.25;5110130;28;20172;-69
2022/11/21 06:00:24;;;;;;;11.90;11.30;;;;;;;10.46;98.47;91495.63;5103753;28;20248;-70
2022/11/21 06:05:33;;;;;;;9.40;9.00;;;;;;;10.78;96.02;91501.19;5081735;28;20255;-69
2022/11/21 06:07:58;;;;;;;9.50;8.97;;;;;;;10.57;95.83;91525.56;5109261;28;20179;-69
2022/11/21 06:10:24;;;;;;;9.33;8.57;;;;;;;10.39;96.22;91521.38;5109149;28;20607;-69
2022/11/21 06:12:49;;;;;;;9.70;9.20;;;;;;;10.29;94.86;91543.28;5108131;28;20172;-69
2022/11/21 06:15:14;;;;;;;10.00;9.40;;;;;;;9.65;93.46;91525.63;5103105;28;20289;-70
2022/11/21 06:17:40;;;;;;;9.47;8.93;;;;;;;9.43;95.26;91547.28;5088666;28;20176;-70
2022/11/21 06:20:06;;;;;;;9.27;8.87;;;;;;;9.06;98.27;91545.03;5094098;28;20236;-69
2022/11/21 06:22:31;;;;;;;9.50;8.90;;;;;;;9.08;99.26;91563.72;5110798;28;20181;-68
2022/11/21 06:24:56;;;;;;;9.77;9.27;;;;;;;9.32;97.09;91561.59;5096368;28;20300;-69
2022/11/21 06:27:22;;;;;;;9.30;8.80;;;;;;;8.68;98.62;91519.59;5091274;28;20191;-70
2022/11/21 06:29:47;;;;;;;9.20;8.87;;;;;;;8.74;99.73;91596.47;5090308;28;20187;-69
2022/11/21 06:32:12;;;;;;;9.53;9.13;;;;;;;8.46;99.83;91580.13;5112327;27;20176;-69
2022/11/21 06:34:38;;;;;;;9.47;9.07;;;;;;;8.38;100.00;91593.03;5108024;27;20311;-70
2022/11/21 06:37:03;;;;;;;12.43;11.93;;;;;;;8.47;100.00;91566.06;5108235;28;20184;-70
2022/11/21 06:39:28;;;;;;;9.37;9.03;;;;;;;8.15;100.00;91585.09;5107683;28;20172;-69
2022/11/21 06:41:54;;;;;;;8.90;8.60;;;;;;;8.22;100.00;91594.38;5110775;28;20227;-69
2022/11/21 06:44:19;;;;;;;10.10;9.70;;;;;;;8.00;100.00;91588.00;5120091;28;20922;-69
2022/11/21 06:46:45;;;;;;;9.23;8.80;;;;;;;8.14;100.00;91596.56;5106411;27;20238;-69
2022/11/21 06:49:11;;;;;;;9.40;9.00;;;;;;;8.20;100.00;91594.66;5093778;28;20181;-69
2022/11/21 06:51:36;;;;;;;9.20;8.80;;;;;;;7.99;100.00;91612.44;5110850;28;20220;-69
2022/11/21 06:54:01;;;;;;;9.77;9.37;;;;;;;8.03;100.00;91618.59;5105094;28;20203;-70
2022/11/21 06:56:29;;;;;;;11.10;10.43;;;;;;;7.72;100.00;91633.16;5125274;27;20227;-69
2022/11/21 06:58:55;;;;;;;9.10;8.70;;;;;;;7.42;100.00;91670.00;5107034;28;20184;-69
2022/11/21 07:01:22;;;;;;;10.00;9.50;;;;;;;6.73;100.00;91682.84;5125574;27;20371;-70
2022/11/21 07:03:47;;;;;;;8.87;8.47;;;;;;;6.55;100.00;91680.97;5112909;28;20215;-69
2022/11/21 07:06:13;;;;;;;9.17;8.87;;;;;;;6.63;100.00;91667.38;5130818;27;20231;-70
2022/11/21 07:08:41;;;;;;;9.30;8.97;;;;;;;6.55;100.00;91701.72;5121491;28;20238;-70
2022/11/21 07:11:09;;;;;;;9.37;9.07;;;;;;;6.32;100.00;91681.72;5117955;27;20212;-70
2022/11/21 07:13:35;;;;;;;8.60;8.30;;;;;;;6.12;100.00;91661.19;5113728;28;20192;-69
2022/11/21 07:16:03;;;;;;;9.60;9.13;;;;;;;5.97;100.00;91685.44;5113458;28;20226;-69
2022/11/21 07:18:28;;;;;;;8.63;8.23;;;;;;;6.26;100.00;91693.19;5113264;28;20184;-69
2022/11/21 07:20:58;;;;;;;9.17;8.87;;;;;;;5.89;100.00;91693.03;5132507;28;20215;-68
2022/11/21 07:23:24;;;;;;;9.63;9.33;;;;;;;5.98;100.00;91712.09;5127607;28;20180;-69
2022/11/21 07:25:49;;;;;;;9.10;8.80;;;;;;;6.03;100.00;91699.13;5125280;28;20211;-69
2022/11/21 07:28:14;;;;;;;8.90;8.60;;;;;;;6.12;100.00;91728.56;5119685;28;20177;-69
2022/11/21 07:30:40;;;;;;;8.80;8.50;;;;;;;6.06;100.00;91737.44;5113651;28;20236;-69
2022/11/21 07:33:06;;;;;;;11.37;10.70;;;;;;;5.88;100.00;91746.63;5112952;28;20201;-69
2022/11/21 07:35:33;;;;;;;9.63;9.13;;;;;;;5.72;100.00;91750.38;5112603;28;20296;-70
2022/11/21 07:37:58;;;;;;;10.13;9.73;;;;;;;5.71;100.00;91750.63;5111763;28;20184;-69
2022/11/21 07:40:24;;;;;;;9.73;9.33;;;;;;;5.85;100.00;91743.81;5110733;28;20228;-69
2022/11/21 07:42:49;;;;;;;10.03;9.63;;;;;;;6.04;100.00;91752.47;5099641;28;20183;-70
2022/11/21 07:45:15;;;;;;;10.17;9.67;;;;;;;5.82;100.00;91759.91;5102801;28;20420;-69
2022/11/21 07:47:41;;;;;;;12.17;11.47;;;;;;;5.44;100.00;91701.09;5116503;28;20192;-69
2022/11/21 07:50:09;;;;;;;11.67;10.87;;;;;;;5.59;100.00;91763.91;5106724;28;20216;-67
2022/11/21 07:52:35;;;;;;;10.83;10.07;;;;;;;5.39;100.00;91761.44;5105605;28;20184;-69
2022/11/21 07:55:04;;;;;;;10.93;10.33;;;;;;;5.58;100.00;91769.34;5080379;28;20250;-69
2022/11/21 07:57:31;;;;;;;10.53;10.13;;;;;;;5.64;100.00;91755.31;5105236;28;20180;-70
2022/11/21 07:59:56;;;;;;;10.60;10.10;;;;;;;5.53;100.00;91769.38;5087043;28;20252;-69
2022/11/21 08:02:24;;;;;;;8.67;8.37;;;;;;;5.74;100.00;91779.34;5092903;28;20185;-70
2022/11/21 08:04:49;;;;;;;9.30;8.90;;;;;;;5.61;100.00;91784.34;5096452;28;20264;-70
2022/11/21 08:07:16;;;;;;;11.00;10.50;;;;;;;5.73;100.00;91787.38;5101327;28;20197;-69
2022/11/21 08:09:41;;;;;;;9.60;9.27;;;;;;;5.68;100.00;91784.84;5095158;28;20293;-70
2022/11/21 08:12:07;;;;;;;9.57;9.17;;;;;;;5.99;100.00;91805.09;5126015;28;20175;-67
2022/11/21 08:14:33;;;;;;;9.13;8.83;;;;;;;5.87;100.00;91803.88;5102269;28;20192;-69
2022/11/21 08:16:59;;;;;;;10.37;9.80;;;;;;;5.86;100.00;91817.88;5114137;28;20241;-70
2022/11/21 08:19:24;;;;;;;9.60;9.20;;;;;;;5.68;100.00;91824.41;5113651;28;20184;-68
2022/11/21 08:21:49;;;;;;;10.33;9.93;;;;;;;5.61;100.00;91836.13;5110957;28;20224;-68
2022/11/21 08:24:16;;;;;;;10.30;9.80;;;;;;;5.57;100.00;91837.69;5117924;28;20207;-69
2022/11/21 08:26:45;;;;;;;10.87;10.37;;;;;;;5.43;100.00;91823.78;5100328;27;20845;-70
2022/11/21 08:29:11;;;;;;;11.23;10.73;;;;;;;5.38;100.00;91829.00;5091664;28;20172;-69
2022/11/21 08:31:37;;;;;;;9.70;9.30;;;;;;;5.61;100.00;91839.50;5091660;28;20231;-68
2022/11/21 08:34:03;;;;;;;11.17;10.67;;;;;;;5.55;100.00;91853.50;5092008;28;20221;-69
2022/11/21 08:36:29;;;;;;;10.17;9.77;;;;;;;5.55;100.00;91837.19;5094836;28;20220;-71
2022/11/21 08:38:54;;;;;;;10.30;9.90;;;;;;;5.74;100.00;91838.91;5102564;28;20215;-70
2022/11/21 08:44:04;;;;;;;10.70;10.20;;;;;;;5.41;100.00;91839.59;5088394;28;20253;-70
2022/11/21 08:46:32;;;;;;;10.53;10.03;;;;;;;5.41;100.00;91841.41;5108016;28;20223;-72
2022/11/21 08:48:58;;;;;;;10.47;9.87;;;;;;;5.56;100.00;91836.91;5109418;28;20172;-71
2022/11/21 08:51:23;;;;;;;10.27;9.87;;;;;;;5.56;100.00;91842.09;5090001;28;20246;-70
2022/11/21 08:53:49;;;;;;;9.83;9.33;;;;;;;5.35;100.00;91826.94;5096245;28;20181;-71
2022/11/21 08:56:14;;;;;;;11.00;10.33;;;;;;;5.27;100.00;91830.84;5098395;28;20246;-70
2022/11/21 08:58:40;;;;;;;10.43;9.80;;;;;;;5.33;100.00;91845.31;5094320;28;20652;-71
2022/11/21 09:01:05;;;;;;;9.97;9.57;;;;;;;5.44;100.00;91839.06;5107598;28;20222;-69
2022/11/21 09:03:31;;;;;;;11.13;10.30;;;;;;;5.43;100.00;91832.31;5115756;28;20199;-71
2022/11/21 09:05:57;;;;;;;9.57;9.17;;;;;;;5.36;100.00;91834.44;5113958;28;21329;-71
2022/11/21 09:08:23;;;;;;;11.50;10.80;;;;;;;5.47;100.00;91824.78;5109937;28;20176;-70
2022/11/21 09:10:48;;;;;;;10.67;10.20;;;;;;;5.56;100.00;91846.50;5117422;28;20245;-70
2022/11/21 09:13:14;;;;;;;10.60;10.17;;;;;;;5.34;100.00;91835.75;5104597;28;20172;-70
2022/11/21 09:18:23;;;;;;;10.40;9.90;;;;;;;5.37;100.00;91840.38;5128258;28;20190;-71
2022/11/21 09:20:48;;;;;;;10.23;9.73;;;;;;;5.43;100.00;91839.31;5105319;28;20228;-70
2022/11/21 09:23:15;;;;;;;10.87;10.37;;;;;;;5.56;100.00;91843.91;5105964;28;20188;-70
2022/11/21 09:25:41;;;;;;;10.30;9.90;;;;;;;5.70;100.00;91856.00;5119196;28;20233;-72
2022/11/21 09:28:09;;;;;;;9.67;9.27;;;;;;;5.77;100.00;91855.72;5104074;28;20725;-68
2022/11/21 09:30:35;;;;;;;10.73;10.23;;;;;;;5.69;100.00;91853.69;5105595;28;20247;-70
2022/11/21 09:33:02;;;;;;;11.77;10.97;;;;;;;5.52;100.00;91858.44;5105313;28;20207;-70
2022/11/21 09:35:28;;;;;;;10.77;10.27;;;;;;;5.52;100.00;91864.38;5082125;28;20235;-69
2022/11/21 09:37:54;;;;;;;10.93;10.43;;;;;;;5.82;100.00;91840.19;5109560;28;20184;-70
2022/11/21 09:40:19;;;;;;;11.20;10.67;;;;;;;5.86;100.00;91848.97;5111487;27;20204;-71
2022/11/21 09:43:09;;;;;;;10.40;9.90;;;;;;;5.97;100.00;91850.44;5109962;28;20180;-68
2022/11/21 09:45:46;;;;;;;10.80;10.30;;;;;;;5.32;100.00;91850.75;5102616;28;20231;-68
2022/11/21 09:48:16;;;;;;;10.80;10.27;;;;;;;5.23;100.00;91855.69;5099758;28;20762;-67
2022/11/21 09:50:52;;;;;;;10.83;10.30;;;;;;;5.29;100.00;91854.66;5099162;28;20226;-67
2022/11/21 09:53:24;;;;;;;13.67;12.67;;;;;;;5.23;100.00;91847.16;5106323;28;20186;-69
2022/11/21 09:55:56;;;;;;;14.07;13.07;;;;;;;5.25;100.00;91845.84;5098299;28;20217;-71
2022/11/21 09:58:42;;;;;;;13.93;13.13;;;;;;;5.43;100.00;91870.38;5076201;28;21078;-70
2022/11/21 10:01:11;;;;;;;12.17;11.57;;;;;;;5.71;100.00;91872.31;5078746;28;20220;-69
2022/11/21 10:03:42;;;;;;;11.63;11.03;;;;;;;5.78;100.00;91885.75;5089170;28;20195;-69
2022/11/21 10:06:26;;;;;;;11.87;11.30;;;;;;;5.35;100.00;91883.84;5102961;28;20207;-69
2022/11/21 10:09:04;;;;;;;12.00;11.23;;;;;;;5.15;100.00;91881.34;5109963;28;20187;-69
2022/11/21 10:15:14;;;;;;;10.77;10.07;;;;;;;5.59;100.00;91882.19;5103650;28;20246;-67
2022/11/21 10:17:42;;;;;;;11.87;11.27;;;;;;;5.64;100.00;91879.59;5101816;28;20195;-67
2022/11/21 10:20:26;;;;;;;12.13;11.43;;;;;;;5.63;100.00;91886.59;5094211;28;20249;-69
2022/11/21 10:23:13;;;;;;;11.83;11.17;;;;;;;5.30;100.00;91894.22;5080612;28;20234;-70
2022/11/21 10:25:47;;;;;;;12.03;11.43;;;;;;;5.50;100.00;91886.38;5101223;28;20232;-71
2022/11/21 10:28:12;;;;;;;11.20;10.60;;;;;;;5.30;100.00;91901.97;5083691;28;20252;-70
2022/11/21 10:30:42;;;;;;;11.60;10.90;;;;;;;5.29;100.00;91903.03;5088156;28;20228;-70
2022/11/21 10:33:17;;;;;;;12.37;11.77;;;;;;;4.81;100.00;91896.66;5092759;28;20185;-71
2022/11/21 10:35:54;;;;;;;10.50;10.00;;;;;;;4.87;100.00;91904.16;5085641;28;20231;-70
2022/11/21 10:38:22;;;;;;;12.03;11.30;;;;;;;5.09;100.00;91905.69;5108692;28;20180;-71
2022/11/21 10:41:16;;;;;;;10.70;10.20;;;;;;;5.33;100.00;91901.44;5096896;28;20212;-70
2022/11/21 10:46:39;;;;;;;11.77;11.17;;;;;;;5.30;100.00;91900.19;5102038;28;20246;-70
2022/11/21 10:49:07;;;;;;;11.87;11.27;;;;;;;5.39;100.00;91903.00;5100293;28;20184;-72
2022/11/21 10:51:36;;;;;;;12.47;11.87;;;;;;;5.39;100.00;91915.94;5107289;28;20211;-69
2022/11/21 10:57:01;;;;;;;9.67;9.27;;;;;;;5.26;100.00;91900.97;5097293;28;20226;-69
2022/11/21 10:59:28;;;;;;;11.93;11.10;;;;;;;5.34;100.00;91910.78;5107939;28;20187;-66
2022/11/21 11:02:15;;;;;;;11.77;11.17;;;;;;;5.14;100.00;91906.44;5081143;28;20213;-68
2022/11/21 11:04:41;;;;;;;11.27;10.73;;;;;;;5.05;100.00;91905.41;5076827;28;20235;-68
2022/11/21 11:07:27;;;;;;;12.27;11.57;;;;;;;5.19;100.00;91905.63;5105220;28;20188;-68
2022/11/21 11:10:14;;;;;;;12.40;11.70;;;;;;;5.42;100.00;91902.44;5088846;28;20232;-69
2022/11/21 11:15:25;;;;;;;12.50;11.83;;;;;;;5.39;100.00;91905.56;5085725;28;20242;-67
2022/11/21 11:17:55;;;;;;;11.93;11.33;;;;;;;5.47;100.00;91905.81;5107127;28;20188;-69
2022/11/21 11:20:32;;;;;;;12.97;11.87;;;;;;;5.24;100.00;91898.66;5103758;28;20245;-68
2022/11/21 11:22:57;;;;;;;10.80;10.13;;;;;;;4.97;100.00;91873.09;5106032;28;20187;-69
2022/11/21 11:25:23;;;;;;;11.63;11.00;;;;;;;5.00;100.00;91895.06;5108838;28;20220;-68
2022/11/21 11:27:48;;;;;;;10.23;9.63;;;;;;;5.06;100.00;91895.84;5100097;28;20193;-69
2022/11/21 11:30:16;;;;;;;11.53;10.93;;;;;;;4.97;100.00;91883.44;5111850;27;20220;-69
2022/11/21 11:32:41;;;;;;;10.37;9.83;;;;;;;4.98;100.00;91895.34;5111162;28;20180;-68
2022/11/21 11:35:20;;;;;;;11.07;10.53;;;;;;;5.16;100.00;91893.22;5102748;28;20228;-69
2022/11/21 11:38:12;;;;;;;10.93;10.43;;;;;;;5.20;100.00;91894.28;5086554;28;20187;-69
2022/11/21 11:40:43;;;;;;;11.63;11.03;;;;;;;5.22;100.00;91885.19;5088784;28;20265;-66
2022/11/21 11:47:29;;;;;;;11.70;11.13;;;;;;;5.44;100.00;91887.44;5097072;28;20243;-68
2022/11/21 11:52:31;;;;;;;11.67;11.07;;;;;;;5.53;100.00;91901.38;5095553;28;20228;-68
2022/11/21 11:55:05;;;;;;;11.30;10.73;;;;;;;5.58;100.00;91891.00;5089068;28;20248;-69
2022/11/21 11:57:34;;;;;;;11.97;11.27;;;;;;;5.93;100.00;91899.41;5087619;28;20193;-68
2022/11/21 12:00:21;;;;;;;12.17;11.47;;;;;;;6.05;100.00;91897.28;5091909;27;20252;-69